sensor_id;sensor_type;location;lat;lon;timestamp;pressure;altitude;pressure_sealevel;temperature;humidity
32761;BME280;19126;47.472;7.850;2023-11-25T00:01:06;96079.56;;;1.13;100.00
32761;BME280;19126;47.472;7.850;2023-11-25T00:03:39;96081.00;;;1.27;100.00
32761;BME280;19126;47.472;7.850;2023-11-25T00:06:07;96076.72;;;1.16;100.00
32761;BME280;19126;47.472;7.850;2023-11-25T00:08:35;96081.38;;;1.23;100.00
32761;BME280;19126;47.472;7.850;2023-11-25T00:11:03;96074.69;;;1.20;100.00
32761;BME280;19126;47.472;7.850;2023-11-25T00:13:31;96066.41;;;1.26;100.00
32761;BME280;19126;47.472;7.850;2023-11-25T00:15:59;96072.03;;;1.31;100.00
32761;BME280;19126;47.472;7.850;2023-11-25T00:18:27;96085.97;;;1.40;100.00
32761;BME280;19126;47.472;7.850;2023-11-25T00:20:57;96079.28;;;1.38;100.00
32761;BME280;19126;47.472;7.850;2023-11-25T00:23:25;96078.06;;;1.42;100.00
32761;BME280;19126;47.472;7.850;2023-11-25T00:25:54;96097.56;;;1.46;100.00
32761;BME280;19126;47.472;7.850;2023-11-25T00:28:22;96096.88;;;1.44;100.00
32761;BME280;19126;47.472;7.850;2023-11-25T00:30:50;96081.94;;;1.26;100.00
32761;BME280;19126;47.472;7.850;2023-11-25T00:33:17;96088.44;;;1.21;100.00
32761;BME280;19126;47.472;7.850;2023-11-25T00:35:45;96082.94;;;1.35;100.00
32761;BME280;19126;47.472;7.850;2023-11-25T00:38:15;96092.34;;;1.36;100.00
32761;BME280;19126;47.472;7.850;2023-11-25T00:40:46;96098.47;;;1.35;100.00
32761;BME280;19126;47.472;7.850;2023-11-25T00:43:15;96097.31;;;1.28;100.00
32761;BME280;19126;47.472;7.850;2023-11-25T00:45:43;96101.53;;;1.19;100.00
32761;BME280;19126;47.472;7.850;2023-11-25T00:48:11;96106.38;;;1.12;100.00
32761;BME280;19126;47.472;7.850;2023-11-25T00:50:39;96118.31;;;1.04;100.00
32761;BME280;19126;47.472;7.850;2023-11-25T00:53:07;96130.81;;;0.98;100.00
32761;BME280;19126;47.472;7.850;2023-11-25T00:55:36;96138.25;;;0.92;100.00
32761;BME280;19126;47.472;7.850;2023-11-25T00:58:04;96127.16;;;0.80;100.00
32761;BME280;19126;47.472;7.850;2023-11-25T01:00:32;96129.41;;;0.73;100.00
32761;BME280;19126;47.472;7.850;2023-11-25T01:03:00;96143.66;;;0.67;100.00
32761;BME280;19126;47.472;7.850;2023-11-25T01:05:28;96134.38;;;0.65;100.00
32761;BME280;19126;47.472;7.850;2023-11-25T01:07:55;96133.94;;;0.60;100.00
32761;BME280;19126;47.472;7.850;2023-11-25T01:10:23;96128.19;;;0.56;100.00
32761;BME280;19126;47.472;7.850;2023-11-25T01:12:54;96123.84;;;0.56;100.00
32761;BME280;19126;47.472;7.850;2023-11-25T01:15:24;96110.81;;;0.58;100.00
32761;BME280;19126;47.472;7.850;2023-11-25T01:17:52;96106.44;;;0.58;100.00
32761;BME280;19126;47.472;7.850;2023-11-25T01:20:20;96113.00;;;0.63;100.00
32761;BME280;19126;47.472;7.850;2023-11-25T01:22:48;96121.78;;;0.71;100.00
32761;BME280;19126;47.472;7.850;2023-11-25T01:25:16;96118.69;;;0.78;100.00
32761;BME280;19126;47.472;7.850;2023-11-25T01:27:43;96121.91;;;0.70;100.00
32761;BME280;19126;47.472;7.850;2023-11-25T01:30:14;96132.13;;;0.71;100.00
32761;BME280;19126;47.472;7.850;2023-11-25T01:32:41;96123.44;;;0.72;100.00
32761;BME280;19126;47.472;7.850;2023-11-25T01:35:09;96137.84;;;0.75;100.00
32761;BME280;19126;47.472;7.850;2023-11-25T01:37:40;96122.59;;;0.72;100.00
32761;BME280;19126;47.472;7.850;2023-11-25T01:40:09;96123.19;;;0.76;100.00
32761;BME280;19126;47.472;7.850;2023-11-25T01:42:38;96129.41;;;0.73;100.00
32761;BME280;19126;47.472;7.850;2023-11-25T01:45:07;96139.03;;;0.71;100.00
32761;BME280;19126;47.472;7.850;2023-11-25T01:47:37;96139.53;;;0.65;100.00
32761;BME280;19126;47.472;7.850;2023-11-25T01:50:07;96144.34;;;0.69;100.00
32761;BME280;19126;47.472;7.850;2023-11-25T01:52:35;96142.28;;;0.63;100.00
32761;BME280;19126;47.472;7.850;2023-11-25T01:55:04;96159.72;;;0.71;100.00
32761;BME280;19126;47.472;7.850;2023-11-25T01:57:35;96143.22;;;0.83;100.00
32761;BME280;19126;47.472;7.850;2023-11-25T02:00:07;96147.84;;;0.80;100.00
32761;BME280;19126;47.472;7.850;2023-11-25T02:02:37;96147.59;;;0.83;100.00
32761;BME280;19126;47.472;7.850;2023-11-25T02:05:07;96123.97;;;0.76;100.00
32761;BME280;19126;47.472;7.850;2023-11-25T02:07:35;96130.34;;;0.72;98.15
32761;BME280;19126;47.472;7.850;2023-11-25T02:10:04;96136.78;;;0.78;97.42
32761;BME280;19126;47.472;7.850;2023-11-25T02:12:33;96128.50;;;0.63;96.35
32761;BME280;19126;47.472;7.850;2023-11-25T02:17:41;96151.00;;;0.51;93.32
32761;BME280;19126;47.472;7.850;2023-11-25T02:20:11;96146.66;;;0.51;91.13
32761;BME280;19126;47.472;7.850;2023-11-25T02:22:50;96136.94;;;0.43;90.13
32761;BME280;19126;47.472;7.850;2023-11-25T02:25:18;96144.75;;;0.53;89.10
32761;BME280;19126;47.472;7.850;2023-11-25T02:27:48;96139.13;;;0.48;88.14
32761;BME280;19126;47.472;7.850;2023-11-25T02:30:16;96140.28;;;0.55;87.14
32761;BME280;19126;47.472;7.850;2023-11-25T02:32:44;96136.41;;;0.61;87.16
32761;BME280;19126;47.472;7.850;2023-11-25T02:35:11;96132.88;;;0.62;87.30
32761;BME280;19126;47.472;7.850;2023-11-25T02:37:43;96140.69;;;0.72;87.59
32761;BME280;19126;47.472;7.850;2023-11-25T02:40:14;96150.34;;;0.70;87.76
32761;BME280;19126;47.472;7.850;2023-11-25T02:42:44;96150.59;;;0.67;87.96
32761;BME280;19126;47.472;7.850;2023-11-25T02:45:17;96146.59;;;0.63;88.70
32761;BME280;19126;47.472;7.850;2023-11-25T02:47:46;96153.06;;;0.68;89.11
32761;BME280;19126;47.472;7.850;2023-11-25T02:50:15;96157.94;;;0.83;90.25
32761;BME280;19126;47.472;7.850;2023-11-25T02:52:44;96163.34;;;0.80;91.78
32761;BME280;19126;47.472;7.850;2023-11-25T02:55:14;96151.97;;;0.71;92.96
32761;BME280;19126;47.472;7.850;2023-11-25T02:57:43;96152.34;;;0.66;93.36
32761;BME280;19126;47.472;7.850;2023-11-25T03:00:13;96139.44;;;0.66;93.88
32761;BME280;19126;47.472;7.850;2023-11-25T03:02:57;96137.53;;;0.68;93.72
32761;BME280;19126;47.472;7.850;2023-11-25T03:05:36;96148.53;;;0.82;95.17
32761;BME280;19126;47.472;7.850;2023-11-25T03:08:05;96159.22;;;0.77;96.59
32761;BME280;19126;47.472;7.850;2023-11-25T03:10:37;96153.41;;;0.64;96.75
32761;BME280;19126;47.472;7.850;2023-11-25T03:13:05;96162.31;;;0.71;96.29
32761;BME280;19126;47.472;7.850;2023-11-25T03:15:33;96153.31;;;0.65;96.15
32761;BME280;19126;47.472;7.850;2023-11-25T03:18:01;96158.59;;;0.64;95.69
32761;BME280;19126;47.472;7.850;2023-11-25T03:20:29;96158.22;;;0.68;94.99
32761;BME280;19126;47.472;7.850;2023-11-25T03:22:57;96166.22;;;0.65;95.01
32761;BME280;19126;47.472;7.850;2023-11-25T03:25:25;96178.47;;;0.63;94.86
32761;BME280;19126;47.472;7.850;2023-11-25T03:27:55;96179.97;;;0.66;95.24
32761;BME280;19126;47.472;7.850;2023-11-25T03:30:23;96180.91;;;0.65;95.41
32761;BME280;19126;47.472;7.850;2023-11-25T03:32:52;96183.97;;;0.58;95.74
32761;BME280;19126;47.472;7.850;2023-11-25T03:35:21;96177.34;;;0.45;95.35
32761;BME280;19126;47.472;7.850;2023-11-25T03:37:49;96180.25;;;0.51;94.90
32761;BME280;19126;47.472;7.850;2023-11-25T03:40:17;96193.53;;;0.47;94.57
32761;BME280;19126;47.472;7.850;2023-11-25T03:42:45;96185.78;;;0.47;93.38
32761;BME280;19126;47.472;7.850;2023-11-25T03:45:15;96183.22;;;0.47;92.92
32761;BME280;19126;47.472;7.850;2023-11-25T03:47:45;96182.75;;;0.41;91.38
32761;BME280;19126;47.472;7.850;2023-11-25T03:50:13;96204.72;;;0.36;90.10
32761;BME280;19126;47.472;7.850;2023-11-25T03:52:44;96191.69;;;0.37;89.05
32761;BME280;19126;47.472;7.850;2023-11-25T03:55:12;96182.63;;;0.43;87.25
32761;BME280;19126;47.472;7.850;2023-11-25T03:57:41;96193.53;;;0.47;86.34
32761;BME280;19126;47.472;7.850;2023-11-25T04:00:10;96198.47;;;0.50;85.10
32761;BME280;19126;47.472;7.850;2023-11-25T04:02:45;96204.47;;;0.39;83.37
32761;BME280;19126;47.472;7.850;2023-11-25T04:05:13;96206.13;;;0.40;81.49
32761;BME280;19126;47.472;7.850;2023-11-25T04:07:44;96211.97;;;0.42;80.12
32761;BME280;19126;47.472;7.850;2023-11-25T04:10:13;96198.75;;;0.35;78.62
32761;BME280;19126;47.472;7.850;2023-11-25T04:12:42;96199.94;;;0.31;77.85
32761;BME280;19126;47.472;7.850;2023-11-25T04:15:12;96208.25;;;0.35;76.86
32761;BME280;19126;47.472;7.850;2023-11-25T04:17:42;96203.69;;;0.27;76.10
32761;BME280;19126;47.472;7.850;2023-11-25T04:20:11;96209.09;;;0.24;75.02
32761;BME280;19126;47.472;7.850;2023-11-25T04:22:45;96203.69;;;0.27;73.76
32761;BME280;19126;47.472;7.850;2023-11-25T04:25:14;96207.31;;;0.24;73.17
32761;BME280;19126;47.472;7.850;2023-11-25T04:27:46;96218.13;;;0.29;71.86
32761;BME280;19126;47.472;7.850;2023-11-25T04:30:16;96201.81;;;0.29;70.93
32761;BME280;19126;47.472;7.850;2023-11-25T04:32:46;96205.34;;;0.28;70.14
32761;BME280;19126;47.472;7.850;2023-11-25T04:35:18;96212.16;;;0.29;69.80
32761;BME280;19126;47.472;7.850;2023-11-25T04:37:46;96212.25;;;0.27;69.32
32761;BME280;19126;47.472;7.850;2023-11-25T04:40:14;96206.97;;;0.29;68.07
32761;BME280;19126;47.472;7.850;2023-11-25T04:42:43;96208.16;;;0.25;68.05
32761;BME280;19126;47.472;7.850;2023-11-25T04:45:11;96211.44;;;0.27;67.27
32761;BME280;19126;47.472;7.850;2023-11-25T04:47:44;96212.94;;;0.29;67.31
32761;BME280;19126;47.472;7.850;2023-11-25T04:50:14;96214.50;;;0.32;66.76
32761;BME280;19126;47.472;7.850;2023-11-25T04:52:42;96210.59;;;0.26;66.33
32761;BME280;19126;47.472;7.850;2023-11-25T04:55:11;96218.00;;;0.31;66.05
32761;BME280;19126;47.472;7.850;2023-11-25T04:57:40;96208.84;;;0.38;65.88
32761;BME280;19126;47.472;7.850;2023-11-25T05:00:12;96208.69;;;0.40;65.96
32761;BME280;19126;47.472;7.850;2023-11-25T05:02:41;96214.31;;;0.45;65.72
32761;BME280;19126;47.472;7.850;2023-11-25T05:05:11;96214.56;;;0.42;65.60
32761;BME280;19126;47.472;7.850;2023-11-25T05:07:40;96210.94;;;0.45;65.54
32761;BME280;19126;47.472;7.850;2023-11-25T05:10:10;96212.69;;;0.44;66.39
32761;BME280;19126;47.472;7.850;2023-11-25T05:12:38;96210.81;;;0.46;66.21
32761;BME280;19126;47.472;7.850;2023-11-25T05:15:08;96215.41;;;0.42;67.27
32761;BME280;19126;47.472;7.850;2023-11-25T05:17:39;96208.63;;;0.30;67.40
32761;BME280;19126;47.472;7.850;2023-11-25T05:20:08;96217.19;;;0.31;67.14
32761;BME280;19126;47.472;7.850;2023-11-25T05:22:43;96201.09;;;0.27;66.77
32761;BME280;19126;47.472;7.850;2023-11-25T05:25:11;96207.69;;;0.31;66.31
32761;BME280;19126;47.472;7.850;2023-11-25T05:27:39;96216.47;;;0.28;66.04
32761;BME280;19126;47.472;7.850;2023-11-25T05:30:08;96218.00;;;0.31;65.33
32761;BME280;19126;47.472;7.850;2023-11-25T05:32:39;96224.44;;;0.37;65.38
32761;BME280;19126;47.472;7.850;2023-11-25T05:35:11;96222.25;;;0.32;65.07
32761;BME280;19126;47.472;7.850;2023-11-25T05:37:40;96219.75;;;0.31;64.65
32761;BME280;19126;47.472;7.850;2023-11-25T05:40:11;96230.69;;;0.34;64.41
32761;BME280;19126;47.472;7.850;2023-11-25T05:42:40;96238.09;;;0.27;64.76
32761;BME280;19126;47.472;7.850;2023-11-25T05:45:13;96234.31;;;0.32;63.94
32761;BME280;19126;47.472;7.850;2023-11-25T05:47:41;96225.75;;;0.31;64.38
32761;BME280;19126;47.472;7.850;2023-11-25T05:50:09;96214.13;;;0.25;64.14
32761;BME280;19126;47.472;7.850;2023-11-25T05:52:37;96222.13;;;0.22;64.45
32761;BME280;19126;47.472;7.850;2023-11-25T05:55:06;96220.94;;;0.15;64.38
32761;BME280;19126;47.472;7.850;2023-11-25T05:57:35;96218.97;;;0.19;63.95
32761;BME280;19126;47.472;7.850;2023-11-25T06:00:05;96230.81;;;0.21;64.05
32761;BME280;19126;47.472;7.850;2023-11-25T06:02:38;96227.66;;;0.18;64.24
32761;BME280;19126;47.472;7.850;2023-11-25T06:05:07;96242.53;;;0.25;64.02
32761;BME280;19126;47.472;7.850;2023-11-25T06:07:36;96242.09;;;0.20;63.83
32761;BME280;19126;47.472;7.850;2023-11-25T06:10:05;96231.41;;;0.13;64.08
32761;BME280;19126;47.472;7.850;2023-11-25T06:12:35;96240.81;;;0.14;63.48
32761;BME280;19126;47.472;7.850;2023-11-25T06:15:04;96249.75;;;0.10;63.29
32761;BME280;19126;47.472;7.850;2023-11-25T06:17:32;96249.84;;;0.09;63.01
32761;BME280;19126;47.472;7.850;2023-11-25T06:20:00;96241.53;;;0.05;62.45
32761;BME280;19126;47.472;7.850;2023-11-25T06:22:28;96243.97;;;0.07;62.13
32761;BME280;19126;47.472;7.850;2023-11-25T06:24:59;96247.63;;;0.04;62.08
32761;BME280;19126;47.472;7.850;2023-11-25T06:27:30;96237.53;;;0.01;61.84
32761;BME280;19126;47.472;7.850;2023-11-25T06:30:00;96244.91;;;0.06;61.24
32761;BME280;19126;47.472;7.850;2023-11-25T06:32:28;96249.13;;;0.07;61.37
32761;BME280;19126;47.472;7.850;2023-11-25T06:34:56;96256.06;;;0.06;61.27
32761;BME280;19126;47.472;7.850;2023-11-25T06:37:24;96257.25;;;0.02;61.38
32761;BME280;19126;47.472;7.850;2023-11-25T06:39:52;96263.13;;;0.16;60.96
32761;BME280;19126;47.472;7.850;2023-11-25T06:42:20;96257.34;;;0.12;61.84
32761;BME280;19126;47.472;7.850;2023-11-25T06:44:50;96264.06;;;0.14;62.45
32761;BME280;19126;47.472;7.850;2023-11-25T06:47:20;96263.34;;;0.12;63.98
32761;BME280;19126;47.472;7.850;2023-11-25T06:49:48;96267.59;;;0.13;64.72
32761;BME280;19126;47.472;7.850;2023-11-25T06:52:17;96261.00;;;0.09;66.02
32761;BME280;19126;47.472;7.850;2023-11-25T06:54:45;96266.50;;;0.16;66.33
32761;BME280;19126;47.472;7.850;2023-11-25T06:57:14;96272.28;;;0.20;68.25
32761;BME280;19126;47.472;7.850;2023-11-25T06:59:42;96285.28;;;0.18;69.65
32761;BME280;19126;47.472;7.850;2023-11-25T07:02:12;96278.63;;;0.16;71.03
32761;BME280;19126;47.472;7.850;2023-11-25T07:04:41;96289.66;;;0.18;72.41
32761;BME280;19126;47.472;7.850;2023-11-25T07:07:09;96284.00;;;0.24;73.06
32761;BME280;19126;47.472;7.850;2023-11-25T07:09:38;96287.53;;;0.23;74.25
32761;BME280;19126;47.472;7.850;2023-11-25T07:12:07;96289.19;;;0.24;74.98
32761;BME280;19126;47.472;7.850;2023-11-25T07:14:36;96289.41;;;0.21;75.49
32761;BME280;19126;47.472;7.850;2023-11-25T07:17:04;96286.13;;;0.19;76.43
32761;BME280;19126;47.472;7.850;2023-11-25T07:19:32;96290.34;;;0.20;77.91
32761;BME280;19126;47.472;7.850;2023-11-25T07:22:04;96296.56;;;0.17;79.41
32761;BME280;19126;47.472;7.850;2023-11-25T07:24:32;96292.56;;;0.13;79.98
32761;BME280;19126;47.472;7.850;2023-11-25T07:27:00;96294.59;;;0.09;80.31
32761;BME280;19126;47.472;7.850;2023-11-25T07:29:33;96300.22;;;0.14;80.94
32761;BME280;19126;47.472;7.850;2023-11-25T07:32:02;96314.19;;;0.23;83.98
32761;BME280;19126;47.472;7.850;2023-11-25T07:34:31;96296.69;;;0.16;86.14
32761;BME280;19126;47.472;7.850;2023-11-25T07:37:00;96310.31;;;0.18;87.52
32761;BME280;19126;47.472;7.850;2023-11-25T07:39:28;96314.88;;;0.25;88.70
32761;BME280;19126;47.472;7.850;2023-11-25T07:42:02;96315.25;;;0.43;88.41
32761;BME280;19126;47.472;7.850;2023-11-25T07:44:30;96315.56;;;0.62;87.86
32761;BME280;19126;47.472;7.850;2023-11-25T07:46:59;96327.78;;;0.71;88.33
32761;BME280;19126;47.472;7.850;2023-11-25T07:49:29;96325.53;;;0.78;88.96
32761;BME280;19126;47.472;7.850;2023-11-25T07:51:58;96327.66;;;0.84;89.96
32761;BME280;19126;47.472;7.850;2023-11-25T07:54:27;96326.94;;;0.82;91.98
32761;BME280;19126;47.472;7.850;2023-11-25T07:56:55;96338.44;;;0.89;93.24
32761;BME280;19126;47.472;7.850;2023-11-25T07:59:22;96333.59;;;0.96;93.82
32761;BME280;19126;47.472;7.850;2023-11-25T08:01:51;96336.19;;;0.96;94.28
32761;BME280;19126;47.472;7.850;2023-11-25T08:04:19;96342.91;;;0.98;95.86
32761;BME280;19126;47.472;7.850;2023-11-25T08:06:47;96346.88;;;1.02;96.56
32761;BME280;19126;47.472;7.850;2023-11-25T08:09:15;96347.69;;;1.03;97.54
32761;BME280;19126;47.472;7.850;2023-11-25T08:11:45;96338.41;;;1.00;99.44
32761;BME280;19126;47.472;7.850;2023-11-25T08:14:14;96348.88;;;0.99;100.00
32761;BME280;19126;47.472;7.850;2023-11-25T08:16:42;96351.34;;;1.00;100.00
32761;BME280;19126;47.472;7.850;2023-11-25T08:19:10;96357.53;;;1.21;100.00
32761;BME280;19126;47.472;7.850;2023-11-25T08:21:39;96358.38;;;1.75;100.00
32761;BME280;19126;47.472;7.850;2023-11-25T08:24:08;96366.78;;;2.10;100.00
32761;BME280;19126;47.472;7.850;2023-11-25T08:26:36;96359.50;;;2.25;99.68
32761;BME280;19126;47.472;7.850;2023-11-25T08:29:06;96360.53;;;2.43;100.00
32761;BME280;19126;47.472;7.850;2023-11-25T08:31:34;96353.50;;;2.55;100.00
32761;BME280;19126;47.472;7.850;2023-11-25T08:34:02;96363.44;;;2.50;100.00
32761;BME280;19126;47.472;7.850;2023-11-25T08:36:32;96359.66;;;2.54;100.00
32761;BME280;19126;47.472;7.850;2023-11-25T08:39:01;96364.84;;;2.95;100.00
32761;BME280;19126;47.472;7.850;2023-11-25T08:41:29;96369.88;;;2.97;100.00
32761;BME280;19126;47.472;7.850;2023-11-25T08:43:57;96362.63;;;2.90;100.00
32761;BME280;19126;47.472;7.850;2023-11-25T08:46:26;96368.59;;;2.81;100.00
32761;BME280;19126;47.472;7.850;2023-11-25T08:48:54;96370.09;;;2.74;100.00
32761;BME280;19126;47.472;7.850;2023-11-25T08:51:22;96379.88;;;2.60;100.00
32761;BME280;19126;47.472;7.850;2023-11-25T08:53:50;96385.13;;;2.49;100.00
32761;BME280;19126;47.472;7.850;2023-11-25T08:56:20;96382.88;;;2.34;100.00
32761;BME280;19126;47.472;7.850;2023-11-25T08:58:51;96387.06;;;2.26;100.00
32761;BME280;19126;47.472;7.850;2023-11-25T09:01:22;96386.38;;;2.24;100.00
32761;BME280;19126;47.472;7.850;2023-11-25T09:03:54;96390.59;;;2.25;100.00
32761;BME280;19126;47.472;7.850;2023-11-25T09:06:22;96401.53;;;2.28;100.00
32761;BME280;19126;47.472;7.850;2023-11-25T09:08:50;96403.88;;;2.31;100.00
32761;BME280;19126;47.472;7.850;2023-11-25T09:11:17;96406.16;;;2.25;100.00
32761;BME280;19126;47.472;7.850;2023-11-25T09:13:45;96405.84;;;2.18;100.00
32761;BME280;19126;47.472;7.850;2023-11-25T09:16:13;96420.38;;;2.09;100.00
32761;BME280;19126;47.472;7.850;2023-11-25T09:18:41;96408.38;;;2.08;100.00
32761;BME280;19126;47.472;7.850;2023-11-25T09:21:11;96406.09;;;1.94;100.00
32761;BME280;19126;47.472;7.850;2023-11-25T09:23:39;96416.94;;;1.87;100.00
32761;BME280;19126;47.472;7.850;2023-11-25T09:26:09;96419.47;;;1.78;100.00
32761;BME280;19126;47.472;7.850;2023-11-25T09:28:37;96415.09;;;1.78;100.00
32761;BME280;19126;47.472;7.850;2023-11-25T09:31:04;96420.53;;;1.75;100.00
32761;BME280;19126;47.472;7.850;2023-11-25T09:33:33;96423.13;;;1.75;100.00
32761;BME280;19126;47.472;7.850;2023-11-25T09:36:02;96429.25;;;1.74;100.00
32761;BME280;19126;47.472;7.850;2023-11-25T09:38:32;96425.97;;;1.72;100.00
32761;BME280;19126;47.472;7.850;2023-11-25T09:41:00;96430.53;;;1.80;100.00
32761;BME280;19126;47.472;7.850;2023-11-25T09:43:29;96430.28;;;1.83;100.00
32761;BME280;19126;47.472;7.850;2023-11-25T09:45:57;96428.19;;;1.77;100.00
32761;BME280;19126;47.472;7.850;2023-11-25T09:48:27;96431.78;;;1.85;100.00
32761;BME280;19126;47.472;7.850;2023-11-25T09:50:56;96439.50;;;1.75;100.00
32761;BME280;19126;47.472;7.850;2023-11-25T09:53:28;96437.41;;;1.69;100.00
32761;BME280;19126;47.472;7.850;2023-11-25T09:56:03;96433.72;;;1.72;100.00
32761;BME280;19126;47.472;7.850;2023-11-25T09:58:34;96428.69;;;1.70;100.00
32761;BME280;19126;47.472;7.850;2023-11-25T10:01:03;96419.09;;;1.82;100.00
32761;BME280;19126;47.472;7.850;2023-11-25T10:03:35;96429.84;;;1.99;100.00
32761;BME280;19126;47.472;7.850;2023-11-25T10:06:04;96424.50;;;2.12;100.00
32761;BME280;19126;47.472;7.850;2023-11-25T10:08:32;96418.91;;;2.16;100.00
32761;BME280;19126;47.472;7.850;2023-11-25T10:11:04;96426.44;;;2.19;100.00
32761;BME280;19126;47.472;7.850;2023-11-25T10:13:34;96423.59;;;2.23;100.00
32761;BME280;19126;47.472;7.850;2023-11-25T10:16:03;96414.06;;;2.23;100.00
32761;BME280;19126;47.472;7.850;2023-11-25T10:18:32;96412.34;;;2.33;100.00
32761;BME280;19126;47.472;7.850;2023-11-25T10:21:03;96406.59;;;2.61;100.00
32761;BME280;19126;47.472;7.850;2023-11-25T10:23:33;96396.34;;;2.81;100.00
32761;BME280;19126;47.472;7.850;2023-11-25T10:26:04;96404.66;;;2.84;100.00
32761;BME280;19126;47.472;7.850;2023-11-25T10:28:33;96401.69;;;2.89;100.00
32761;BME280;19126;47.472;7.850;2023-11-25T10:31:04;96404.41;;;2.87;100.00
32761;BME280;19126;47.472;7.850;2023-11-25T10:33:32;96395.22;;;2.73;100.00
32761;BME280;19126;47.472;7.850;2023-11-25T10:36:03;96388.94;;;2.76;100.00
32761;BME280;19126;47.472;7.850;2023-11-25T10:38:31;96396.44;;;2.69;100.00
32761;BME280;19126;47.472;7.850;2023-11-25T10:41:00;96401.16;;;2.64;100.00
32761;BME280;19126;47.472;7.850;2023-11-25T10:43:31;96400.72;;;2.59;100.00
32761;BME280;19126;47.472;7.850;2023-11-25T10:46:02;96394.16;;;2.55;100.00
32761;BME280;19126;47.472;7.850;2023-11-25T10:48:30;96393.34;;;2.54;100.00
32761;BME280;19126;47.472;7.850;2023-11-25T10:50:59;96390.31;;;2.49;100.00
32761;BME280;19126;47.472;7.850;2023-11-25T10:53:28;96401.69;;;2.58;100.00
32761;BME280;19126;47.472;7.850;2023-11-25T10:55:58;96396.06;;;2.53;100.00
32761;BME280;19126;47.472;7.850;2023-11-25T10:58:27;96405.22;;;2.57;100.00
32761;BME280;19126;47.472;7.850;2023-11-25T11:00:58;96396.22;;;2.61;100.00
32761;BME280;19126;47.472;7.850;2023-11-25T11:03:48;96398.91;;;2.49;100.00
32761;BME280;19126;47.472;7.850;2023-11-25T11:06:23;96398.13;;;2.59;100.00
32761;BME280;19126;47.472;7.850;2023-11-25T11:08:54;96401.16;;;2.64;100.00
32761;BME280;19126;47.472;7.850;2023-11-25T11:11:29;96392.47;;;2.65;100.00
32761;BME280;19126;47.472;7.850;2023-11-25T11:14:04;96385.59;;;2.64;100.00
32761;BME280;19126;47.472;7.850;2023-11-25T11:16:46;96385.59;;;2.64;100.00
32761;BME280;19126;47.472;7.850;2023-11-25T11:19:18;96391.34;;;2.68;100.00
32761;BME280;19126;47.472;7.850;2023-11-25T11:21:51;96399.50;;;2.63;100.00
32761;BME280;19126;47.472;7.850;2023-11-25T11:24:27;96392.47;;;2.65;100.00
32761;BME280;19126;47.472;7.850;2023-11-25T11:27:02;96394.22;;;2.64;100.00
32761;BME280;19126;47.472;7.850;2023-11-25T11:29:42;96389.78;;;2.76;100.00
32761;BME280;19126;47.472;7.850;2023-11-25T11:32:18;96380.19;;;2.67;100.00
32761;BME280;19126;47.472;7.850;2023-11-25T11:34:46;96374.47;;;2.73;100.00
32761;BME280;19126;47.472;7.850;2023-11-25T11:37:15;96383.91;;;2.74;100.00
32761;BME280;19126;47.472;7.850;2023-11-25T11:39:55;96374.63;;;2.82;100.00
32761;BME280;19126;47.472;7.850;2023-11-25T11:42:28;96378.88;;;2.92;100.00
32761;BME280;19126;47.472;7.850;2023-11-25T11:45:06;96384.13;;;3.02;100.00
32761;BME280;19126;47.472;7.850;2023-11-25T11:47:45;96385.22;;;3.10;100.00
32761;BME280;19126;47.472;7.850;2023-11-25T11:50:18;96389.03;;;3.15;100.00
32761;BME280;19126;47.472;7.850;2023-11-25T11:53:13;96389.72;;;3.17;100.00
32761;BME280;19126;47.472;7.850;2023-11-25T11:55:43;96385.50;;;3.16;100.00
32761;BME280;19126;47.472;7.850;2023-11-25T11:58:18;96385.50;;;3.16;100.00
32761;BME280;19126;47.472;7.850;2023-11-25T12:00:47;96380.72;;;3.12;100.00
32761;BME280;19126;47.472;7.850;2023-11-25T12:03:17;96379.50;;;3.16;100.00
32761;BME280;19126;47.472;7.850;2023-11-25T12:05:45;96374.44;;;3.14;100.00
32761;BME280;19126;47.472;7.850;2023-11-25T12:08:13;96364.72;;;3.06;100.00
32761;BME280;19126;47.472;7.850;2023-11-25T12:10:41;96374.16;;;3.07;100.00
32761;BME280;19126;47.472;7.850;2023-11-25T12:13:09;96369.91;;;3.06;100.00
32761;BME280;19126;47.472;7.850;2023-11-25T12:15:38;96376.44;;;3.01;100.00
32761;BME280;19126;47.472;7.850;2023-11-25T12:18:09;96381.09;;;3.07;100.00
32761;BME280;19126;47.472;7.850;2023-11-25T12:20:39;96370.03;;;2.95;100.00
32761;BME280;19126;47.472;7.850;2023-11-25T12:23:09;96362.25;;;2.95;100.00
32761;BME280;19126;47.472;7.850;2023-11-25T12:25:38;96356.38;;;2.93;100.00
32761;BME280;19126;47.472;7.850;2023-11-25T12:28:08;96357.91;;;3.05;100.00
32761;BME280;19126;47.472;7.850;2023-11-25T12:30:38;96362.97;;;3.17;100.00
32761;BME280;19126;47.472;7.850;2023-11-25T12:33:07;96359.56;;;3.26;100.00
32761;BME280;19126;47.472;7.850;2023-11-25T12:35:35;96344.81;;;3.27;100.00
32761;BME280;19126;47.472;7.850;2023-11-25T12:38:04;96359.44;;;3.37;100.00
32761;BME280;19126;47.472;7.850;2023-11-25T12:40:33;96351.91;;;3.44;100.00
32761;BME280;19126;47.472;7.850;2023-11-25T12:43:05;96346.59;;;3.46;100.00
32761;BME280;19126;47.472;7.850;2023-11-25T12:45:36;96332.38;;;3.40;100.00
32761;BME280;19126;47.472;7.850;2023-11-25T12:48:06;96329.38;;;3.55;100.00
32761;BME280;19126;47.472;7.850;2023-11-25T12:50:59;96328.56;;;3.54;100.00
32761;BME280;19126;47.472;7.850;2023-11-25T12:53:29;96327.59;;;3.55;100.00
32761;BME280;19126;47.472;7.850;2023-11-25T12:55:57;96329.38;;;3.45;100.00
32761;BME280;19126;47.472;7.850;2023-11-25T12:58:25;96329.78;;;3.50;100.00
32761;BME280;19126;47.472;7.850;2023-11-25T13:00:54;96322.81;;;3.41;100.00
32761;BME280;19126;47.472;7.850;2023-11-25T13:03:24;96316.94;;;3.39;100.00
32761;BME280;19126;47.472;7.850;2023-11-25T13:05:57;96320.34;;;3.39;100.00
32761;BME280;19126;47.472;7.850;2023-11-25T13:08:29;96311.59;;;3.40;100.00
32761;BME280;19126;47.472;7.850;2023-11-25T13:11:00;96314.88;;;3.42;100.00
32761;BME280;19126;47.472;7.850;2023-11-25T13:13:30;96325.41;;;3.50;100.00
32761;BME280;19126;47.472;7.850;2023-11-25T13:15:59;96329.38;;;3.55;100.00
32761;BME280;19126;47.472;7.850;2023-11-25T13:18:27;96331.16;;;3.54;100.00
32761;BME280;19126;47.472;7.850;2023-11-25T13:20:56;96322.00;;;3.50;99.72